Time;durP1;ratioP1;P1;durP2;ratioP2;P2;SDS_P1;SDS_P2;PMS_P1;PMS_P2;Temp;Humidity;BMP_temperature;BMP_pressure;BME280_temperature;BME280_humidity;BME280_pressure;Samples;Min_cycle;Max_cycle;Signal;HPM_P1;HPM_P2
2022/09/25 00:00:42;;;;;;;5.10;3.35;;;;;;;8.99;nan;101536.25;5024693;28;20525;-55
2022/09/25 00:03:08;;;;;;;7.63;2.90;;;;;;;8.64;nan;101478.16;5022418;28;20033;-53
2022/09/25 00:05:38;;;;;;;8.10;2.83;;;;;;;8.96;nan;101531.91;5032071;28;20024;-52
2022/09/25 00:08:04;;;;;;;7.05;2.60;;;;;;;9.09;nan;101537.84;5020276;28;20116;-52
2022/09/25 00:10:29;;;;;;;6.93;3.03;;;;;;;8.86;nan;101487.44;5030187;28;20426;-55
2022/09/25 00:12:55;;;;;;;6.97;2.63;;;;;;;9.20;nan;101538.56;5020370;28;20060;-56
2022/09/25 00:15:20;;;;;;;7.63;3.50;;;;;;;9.22;nan;101549.06;5033722;28;20041;-52
2022/09/25 00:17:46;;;;;;;10.43;2.75;;;;;;;8.84;nan;101473.50;5034624;28;20026;-57
2022/09/25 00:20:13;;;;;;;7.63;2.97;;;;;;;9.19;nan;101539.47;5018953;28;20030;-53
2022/09/25 00:22:38;;;;;;;7.72;3.00;;;;;;;9.19;nan;101541.22;5029987;28;20034;-57
2022/09/25 00:25:04;;;;;;;7.55;2.97;;;;;;;9.01;nan;101518.72;5021316;28;20465;-53
2022/09/25 00:27:29;;;;;;;7.13;2.80;;;;;;;9.13;nan;101554.44;5024357;28;20096;-56
2022/09/25 00:29:55;;;;;;;10.50;3.30;;;;;;;8.99;nan;101523.97;5028486;28;20045;-58
2022/09/25 00:32:20;;;;;;;7.05;2.83;;;;;;;8.67;nan;101486.84;5018277;28;20088;-49
2022/09/25 00:34:46;;;;;;;5.15;2.15;;;;;;;9.00;nan;101549.38;5029920;28;20120;-50
2022/09/25 00:37:11;;;;;;;6.10;3.00;;;;;;;8.94;nan;101536.31;5014731;28;20033;-53
2022/09/25 00:39:36;;;;;;;12.10;2.97;;;;;;;8.82;nan;101518.13;5013474;28;20038;-56
2022/09/25 00:42:02;;;;;;;8.95;2.83;;;;;;;8.67;nan;101494.72;5029140;28;20480;-55
2022/09/25 00:44:45;;;;;;;10.00;3.15;;;;;;;8.89;nan;101546.03;5017872;28;20485;-51
2022/09/25 00:47:14;;;;;;;8.02;2.97;;;;;;;8.87;nan;101542.53;5026844;28;20048;-52
2022/09/25 00:49:40;;;;;;;7.93;3.25;;;;;;;8.80;nan;101534.78;5022607;28;20477;-50
2022/09/25 00:52:11;;;;;;;6.38;3.00;;;;;;;8.46;nan;101482.75;5028226;28;20041;-54
2022/09/25 00:54:38;;;;;;;;;;;;;;;8.77;nan;101540.94;5029495;28;20117;-51
2022/09/25 00:57:07;;;;;;;4.60;2.60;;;;;;;8.30;nan;101456.75;5020288;28;20016;-53
2022/09/25 00:59:37;;;;;;;9.70;3.20;;;;;;;8.71;nan;101533.16;5028282;28;20045;-53
2022/09/25 01:02:03;;;;;;;9.93;2.70;;;;;;;8.60;nan;101519.31;5028994;28;20036;-54
2022/09/25 01:04:32;;;;;;;6.93;3.35;;;;;;;8.65;nan;101538.50;5029223;28;20038;-54
2022/09/25 01:06:57;;;;;;;4.82;3.00;;;;;;;8.59;nan;101537.69;5032318;28;20461;-51
2022/09/25 01:09:23;;;;;;;7.50;3.50;;;;;;;8.24;nan;101472.53;5023463;28;20038;-55
2022/09/25 01:11:48;;;;;;;9.27;3.13;;;;;;;8.10;nan;101450.88;5005668;28;20104;-51
2022/09/25 01:14:16;;;;;;;5.07;3.10;;;;;;;8.57;nan;101534.22;5030187;28;20053;-55
2022/09/25 01:16:44;;;;;;;7.10;2.97;;;;;;;8.54;nan;101542.16;5019402;28;20041;-55
2022/09/25 01:19:40;;;;;;;6.15;3.45;;;;;;;8.49;nan;101542.22;5033573;28;20033;-54
2022/09/25 01:22:20;;;;;;;7.07;3.30;;;;;;;8.44;nan;101537.00;5018435;28;20037;-56
2022/09/25 01:25:00;;;;;;;11.30;3.80;;;;;;;8.46;nan;101552.75;5032202;28;20535;-52
2022/09/25 01:27:36;;;;;;;8.07;4.07;;;;;;;8.43;nan;101551.00;5033457;28;20515;-55
2022/09/25 01:30:09;;;;;;;8.35;3.92;;;;;;;8.33;nan;101528.41;5032270;28;20389;-49
2022/09/25 01:32:48;;;;;;;6.25;4.07;;;;;;;8.34;nan;101548.53;5030593;28;20033;-53
2022/09/25 01:35:46;;;;;;;5.43;3.58;;;;;;;8.31;nan;101553.81;5020444;28;20032;-54
2022/09/25 01:38:40;;;;;;;6.43;3.92;;;;;;;8.29;nan;101549.47;5031996;28;20040;-51
2022/09/25 01:41:20;;;;;;;10.23;4.15;;;;;;;8.19;nan;101538.16;5020517;28;20439;-51
2022/09/25 01:43:52;;;;;;;12.25;4.78;;;;;;;8.22;nan;101539.88;5033102;28;20536;-51
2022/09/25 01:46:23;;;;;;;9.45;4.55;;;;;;;8.24;nan;101541.59;5016683;28;20441;-49
2022/09/25 01:48:53;;;;;;;7.35;3.42;;;;;;;8.24;nan;101553.84;5015599;28;20045;-54
2022/09/25 01:51:27;;;;;;;6.60;3.90;;;;;;;8.13;nan;101516.38;5023181;28;20092;-51
2022/09/25 01:54:16;;;;;;;4.20;3.42;;;;;;;8.27;nan;101538.97;5021696;28;20400;-53
2022/09/25 01:56:50;;;;;;;9.45;4.07;;;;;;;8.22;nan;101514.53;5012414;28;20084;-54
2022/09/25 01:59:28;;;;;;;8.38;3.70;;;;;;;8.29;nan;101508.34;5021180;28;20030;-51
2022/09/25 02:01:54;;;;;;;8.55;4.22;;;;;;;8.50;nan;101533.44;5018838;28;20037;-50
2022/09/25 02:04:28;;;;;;;8.07;4.30;;;;;;;8.29;nan;101465.53;5027967;28;20269;-53
2022/09/25 02:06:56;;;;;;;12.32;5.25;;;;;;;8.78;nan;101540.06;5016972;28;20021;-52
2022/09/25 02:09:28;;;;;;;6.57;4.30;;;;;;;8.83;nan;101538.25;5031328;28;20056;-54
2022/09/25 02:11:58;;;;;;;6.57;4.65;;;;;;;8.92;nan;101550.38;5032834;28;20057;-50
2022/09/25 02:14:31;;;;;;;10.50;5.05;;;;;;;9.02;nan;101549.31;5016106;28;20133;-53
2022/09/25 02:16:57;;;;;;;8.00;4.53;;;;;;;8.65;nan;101459.75;5030972;28;20035;-53
2022/09/25 02:22:14;;;;;;;9.05;5.00;;;;;;;9.21;nan;101537.66;5027116;28;20040;-55
2022/09/25 02:24:47;;;;;;;7.80;4.90;;;;;;;8.85;nan;101460.31;5031276;28;20075;-54
2022/09/25 02:27:13;;;;;;;9.73;4.55;;;;;;;9.20;nan;101522.78;5043269;28;20025;-53
2022/09/25 02:29:39;;;;;;;10.85;4.63;;;;;;;8.91;nan;101468.09;5031237;28;20056;-49
2022/09/25 02:32:07;;;;;;;9.70;4.30;;;;;;;9.02;nan;101476.69;5035943;28;20030;-55
2022/09/25 02:34:33;;;;;;;6.75;4.47;;;;;;;9.17;nan;101506.22;5015737;28;20037;-51
2022/09/25 02:36:58;;;;;;;10.30;4.22;;;;;;;9.28;nan;101517.44;5029923;28;20036;-54
2022/09/25 02:39:26;;;;;;;9.57;5.00;;;;;;;9.34;nan;101519.97;5012490;28;20034;-50
2022/09/25 02:42:17;;;;;;;8.40;4.82;;;;;;;9.51;nan;101536.31;5025286;28;20034;-55
2022/09/25 02:44:45;;;;;;;8.43;4.60;;;;;;;9.57;nan;101549.34;5030742;28;20599;-54
2022/09/25 02:47:16;;;;;;;13.13;6.20;;;;;;;9.63;nan;101547.47;5032264;28;20117;-49
2022/09/25 02:50:19;;;;;;;8.00;4.05;;;;;;;9.70;nan;101542.97;5020057;28;20026;-50
2022/09/25 02:53:14;;;;;;;8.18;4.43;;;;;;;9.79;nan;101548.06;5016212;28;20021;-54
2022/09/25 02:55:44;;;;;;;8.88;4.35;;;;;;;9.63;nan;101496.69;5020781;28;20064;-55
2022/09/25 02:58:38;;;;;;;8.93;4.28;;;;;;;9.92;nan;101535.56;5027983;28;20070;-54
2022/09/25 03:01:05;;;;;;;8.07;4.15;;;;;;;9.91;nan;101523.31;5017306;28;20447;-52
2022/09/25 03:03:32;;;;;;;11.13;4.18;;;;;;;10.02;nan;101550.28;5027225;28;20485;-53
2022/09/25 03:05:58;;;;;;;8.57;4.43;;;;;;;10.03;nan;101541.50;5011169;28;20040;-54
2022/09/25 03:08:38;;;;;;;10.00;3.83;;;;;;;9.72;nan;101471.97;5011962;28;20044;-54
2022/09/25 03:11:07;;;;;;;10.15;3.85;;;;;;;10.16;nan;101561.44;5017587;28;20117;-54
2022/09/25 03:13:33;;;;;;;4.95;3.28;;;;;;;10.13;nan;101559.72;5021142;28;20057;-54
2022/09/25 03:16:08;;;;;;;8.02;3.92;;;;;;;9.75;nan;101479.81;5026101;28;20116;-52
2022/09/25 03:18:33;;;;;;;6.65;2.42;;;;;;;9.96;nan;101508.31;5015512;28;20030;-52
2022/09/25 03:20:59;;;;;;;10.02;3.67;;;;;;;10.24;nan;101530.59;5025874;28;20060;-54
2022/09/25 03:23:24;;;;;;;8.50;3.05;;;;;;;10.05;nan;101487.09;5021351;28;20045;-56
2022/09/25 03:25:53;;;;;;;7.65;2.42;;;;;;;10.12;nan;101470.28;5018706;28;20030;-50
2022/09/25 03:28:19;;;;;;;5.57;2.40;;;;;;;10.16;nan;101458.81;5015076;28;20033;-52
2022/09/25 03:30:54;;;;;;;7.07;2.10;;;;;;;10.46;nan;101510.81;5032947;28;20388;-53
2022/09/25 03:33:19;;;;;;;5.38;2.03;;;;;;;10.60;nan;101535.09;5025626;28;20041;-56
2022/09/25 03:35:45;;;;;;;4.03;1.80;;;;;;;10.25;nan;101463.03;5028233;28;20030;-53
2022/09/25 03:38:11;;;;;;;3.00;1.83;;;;;;;10.38;nan;101477.66;5035478;28;20033;-54
2022/09/25 03:40:36;;;;;;;5.05;1.80;;;;;;;10.65;nan;101525.31;5019062;28;20468;-53
2022/09/25 03:43:02;;;;;;;4.38;1.80;;;;;;;10.61;nan;101514.88;5028902;28;20033;-54
2022/09/25 03:45:27;;;;;;;7.13;2.45;;;;;;;10.61;nan;101512.25;5025453;28;20033;-58
2022/09/25 03:47:53;;;;;;;4.93;2.53;;;;;;;10.19;nan;101458.75;5021988;28;20444;-55
2022/09/25 03:50:18;;;;;;;7.03;2.53;;;;;;;10.34;nan;101484.75;5031820;28;20382;-52
2022/09/25 03:52:43;;;;;;;5.00;2.33;;;;;;;9.99;nan;101448.63;5016635;28;20390;-53
2022/09/25 03:55:10;;;;;;;7.32;2.17;;;;;;;10.17;nan;101502.66;5037745;28;20415;-54
2022/09/25 03:57:36;;;;;;;3.13;2.28;;;;;;;9.77;nan;101457.84;5030355;28;20030;-52
2022/09/25 04:00:02;;;;;;;7.25;2.70;;;;;;;10.05;nan;101516.03;5018535;28;20057;-54
2022/09/25 04:02:28;;;;;;;9.73;2.47;;;;;;;9.78;nan;101479.75;5027427;28;20053;-54
2022/09/25 04:04:54;;;;;;;8.93;2.97;;;;;;;9.51;nan;101441.69;5027835;28;20080;-52
2022/09/25 04:07:23;;;;;;;7.18;3.00;;;;;;;9.80;nan;101526.16;5026109;28;20053;-54
2022/09/25 04:09:48;;;;;;;9.40;2.83;;;;;;;9.73;nan;101535.03;5020027;28;20046;-51
2022/09/25 04:12:14;;;;;;;5.55;2.90;;;;;;;9.61;nan;101520.34;5014065;28;20042;-56
2022/09/25 04:14:44;;;;;;;5.75;3.05;;;;;;;9.58;nan;101516.91;5015245;28;20116;-54
2022/09/25 04:17:10;;;;;;;7.88;3.22;;;;;;;9.53;nan;101510.84;5014274;28;20030;-56
2022/09/25 04:19:36;;;;;;;6.40;3.85;;;;;;;9.48;nan;101513.59;5015350;28;20048;-54
2022/09/25 04:22:01;;;;;;;8.85;4.85;;;;;;;9.39;nan;101511.09;5015181;28;20029;-56
2022/09/25 04:27:10;;;;;;;7.72;4.53;;;;;;;8.89;nan;101433.16;5014472;28;20076;-55
2022/09/25 04:29:36;;;;;;;7.88;4.78;;;;;;;8.87;nan;101440.16;5027105;28;20077;-53
2022/09/25 04:34:46;;;;;;;9.88;4.38;;;;;;;9.12;nan;101493.16;5034608;28;20092;-58
2022/09/25 04:37:12;;;;;;;7.82;4.65;;;;;;;8.98;nan;101485.50;5033625;28;20473;-56
2022/09/25 04:39:38;;;;;;;9.65;4.82;;;;;;;9.04;nan;101495.91;5033481;28;20036;-54
2022/09/25 04:42:04;;;;;;;8.60;5.13;;;;;;;8.42;nan;101397.13;5028925;28;20038;-51
2022/09/25 04:44:29;;;;;;;11.50;5.90;;;;;;;8.64;nan;101438.81;5032984;28;20045;-52
2022/09/25 04:46:55;;;;;;;9.63;5.32;;;;;;;8.86;nan;101487.44;5033261;28;20072;-55
2022/09/25 04:49:20;;;;;;;12.52;5.30;;;;;;;8.82;nan;101477.88;5033244;28;20037;-54
2022/09/25 04:51:45;;;;;;;9.32;5.45;;;;;;;8.87;nan;101499.69;5033290;28;20045;-51
2022/09/25 04:54:11;;;;;;;10.68;5.53;;;;;;;8.64;nan;101470.28;5034038;28;20048;-54
2022/09/25 04:56:36;;;;;;;12.57;5.75;;;;;;;8.86;nan;101498.81;5034167;28;20048;-55
2022/09/25 04:59:01;;;;;;;11.32;5.38;;;;;;;8.53;nan;101435.44;5034539;28;20041;-56
2022/09/25 05:01:26;;;;;;;6.72;4.80;;;;;;;8.68;nan;101448.34;5034467;28;20069;-54
2022/09/25 05:03:52;;;;;;;9.27;5.72;;;;;;;9.04;nan;101497.69;5034316;28;20040;-55
2022/09/25 05:06:18;;;;;;;10.23;5.43;;;;;;;9.14;nan;101493.13;5033070;28;20044;-51
2022/09/25 05:08:46;;;;;;;13.48;5.50;;;;;;;9.23;nan;101506.97;5034418;28;20046;-53
2022/09/25 05:11:12;;;;;;;8.63;5.18;;;;;;;9.28;nan;101502.50;5034208;28;20034;-53
2022/09/25 05:13:37;;;;;;;8.63;4.97;;;;;;;9.36;nan;101512.91;5034107;28;20103;-50
2022/09/25 05:16:03;;;;;;;10.02;5.05;;;;;;;9.39;nan;101495.34;5034027;28;20038;-53
2022/09/25 05:18:28;;;;;;;5.57;4.88;;;;;;;9.47;nan;101501.31;5017462;28;20129;-58
2022/09/25 05:20:53;;;;;;;10.60;4.82;;;;;;;9.42;nan;101486.53;5013968;28;20038;-51
2022/09/25 05:23:19;;;;;;;7.25;4.50;;;;;;;9.48;nan;101484.69;5014140;28;20098;-55
2022/09/25 05:25:59;;;;;;;10.77;5.30;;;;;;;9.33;nan;101461.28;5014176;28;20042;-52
2022/09/25 05:28:24;;;;;;;12.65;4.90;;;;;;;9.52;nan;101486.34;5013963;28;20026;-53
2022/09/25 05:30:50;;;;;;;10.50;4.25;;;;;;;9.47;nan;101488.19;5012868;28;20054;-57
2022/09/25 05:33:16;;;;;;;7.65;4.22;;;;;;;9.43;nan;101481.25;5012794;28;20034;-55
2022/09/25 05:35:42;;;;;;;8.00;4.68;;;;;;;9.42;nan;101483.91;5013827;28;20548;-56
2022/09/25 05:38:07;;;;;;;7.03;4.03;;;;;;;9.38;nan;101495.34;5014084;28;20034;-53
2022/09/25 05:40:33;;;;;;;8.25;4.07;;;;;;;8.97;nan;101433.00;5013984;28;20626;-52
2022/09/25 05:42:58;;;;;;;7.53;4.82;;;;;;;8.96;nan;101434.75;5013970;28;20034;-54
2022/09/25 05:45:24;;;;;;;5.80;4.20;;;;;;;9.34;nan;101502.41;5013582;28;20125;-52
2022/09/25 05:48:00;;;;;;;6.90;5.20;;;;;;;9.38;nan;101504.09;5013679;28;20095;-55
2022/09/25 05:50:25;;;;;;;6.00;4.22;;;;;;;8.99;nan;101413.69;5013874;28;20113;-55
2022/09/25 05:52:55;;;;;;;8.43;4.85;;;;;;;8.90;nan;101387.59;5012848;28;20164;-53
2022/09/25 05:55:21;;;;;;;9.95;5.10;;;;;;;9.70;nan;101498.28;5013377;28;20033;-54
2022/09/25 05:57:46;;;;;;;9.55;4.75;;;;;;;9.81;nan;101498.06;5013512;28;20056;-53
2022/09/25 06:00:12;;;;;;;5.82;4.43;;;;;;;9.54;nan;101439.84;5012306;28;20459;-53
2022/09/25 06:02:38;;;;;;;6.30;4.40;;;;;;;9.45;nan;101405.91;5013384;28;20068;-51
2022/09/25 06:05:03;;;;;;;8.68;3.83;;;;;;;10.13;nan;101508.88;5013551;28;20469;-53
2022/09/25 06:07:29;;;;;;;8.75;3.88;;;;;;;9.93;nan;101459.28;5013497;28;20088;-54
2022/09/25 06:09:54;;;;;;;7.45;3.65;;;;;;;9.98;nan;101472.34;5013469;28;20058;-53
2022/09/25 06:12:21;;;;;;;8.20;3.53;;;;;;;9.99;nan;101445.13;5021446;28;20063;-53
2022/09/25 06:14:47;;;;;;;6.43;3.25;;;;;;;10.40;nan;101504.81;5022691;28;20417;-50
2022/09/25 06:17:13;;;;;;;8.18;3.10;;;;;;;10.47;nan;101502.03;5027404;28;20038;-53
2022/09/25 06:19:38;;;;;;;7.93;2.90;;;;;;;10.56;nan;101506.25;4997873;28;20428;-53
2022/09/25 06:22:03;;;;;;;12.23;3.65;;;;;;;10.59;nan;101517.56;5024104;28;20048;-53
2022/09/25 06:24:29;;;;;;;6.72;3.45;;;;;;;10.61;nan;101510.50;5024491;28;20037;-50
2022/09/25 06:26:54;;;;;;;4.85;2.72;;;;;;;10.64;nan;101507.81;5029238;28;20092;-54
2022/09/25 06:29:19;;;;;;;5.53;3.20;;;;;;;10.69;nan;101502.41;5027927;28;20393;-56
2022/09/25 06:31:45;;;;;;;7.78;3.25;;;;;;;10.38;nan;101449.59;5018589;28;20128;-54
2022/09/25 06:34:11;;;;;;;4.80;2.70;;;;;;;10.80;nan;101510.09;5027293;28;20116;-54
2022/09/25 06:36:37;;;;;;;5.05;2.85;;;;;;;10.85;nan;101506.47;5031104;28;20443;-55
2022/09/25 06:39:03;;;;;;;7.95;3.03;;;;;;;10.55;nan;101449.22;5014810;28;20038;-55
2022/09/25 06:41:28;;;;;;;7.00;3.33;;;;;;;10.92;nan;101504.53;5032264;28;20029;-51
2022/09/25 06:43:54;;;;;;;7.28;3.58;;;;;;;11.02;nan;101508.69;5024707;28;20084;-50
2022/09/25 06:46:19;;;;;;;5.45;2.78;;;;;;;11.05;nan;101511.25;5022780;28;20049;-57
2022/09/25 06:48:53;;;;;;;3.72;3.03;;;;;;;10.75;nan;101444.34;5018127;28;20037;-53
2022/09/25 06:51:19;;;;;;;6.10;2.65;;;;;;;11.23;nan;101509.06;5028550;28;20029;-58
2022/09/25 06:53:44;;;;;;;4.88;2.70;;;;;;;11.17;nan;101487.25;5018179;28;20048;-56
2022/09/25 06:56:09;;;;;;;5.47;2.85;;;;;;;11.41;nan;101506.88;5022835;28;20034;-57
2022/09/25 06:58:35;;;;;;;4.78;3.25;;;;;;;11.45;nan;101496.19;5025003;28;20053;-50
2022/09/25 07:01:00;;;;;;;5.13;2.92;;;;;;;11.60;nan;101510.75;5015594;28;20076;-53
2022/09/25 07:03:44;;;;;;;6.63;3.25;;;;;;;11.63;nan;101501.00;5028336;28;20396;-51
2022/09/25 07:06:20;;;;;;;8.32;2.67;;;;;;;11.79;nan;101512.03;5021615;28;20044;-55
2022/09/25 07:08:49;;;;;;;6.82;2.95;;;;;;;11.87;nan;101498.63;5017838;28;20048;-55
2022/09/25 07:11:18;;;;;;;7.57;2.72;;;;;;;12.02;nan;101503.50;5027085;28;20065;-53
2022/09/25 07:13:43;;;;;;;9.15;3.03;;;;;;;12.06;nan;101500.72;5017177;28;20045;-57
2022/09/25 07:16:12;;;;;;;5.85;2.78;;;;;;;12.17;nan;101513.63;5022512;28;20485;-53
2022/09/25 07:18:38;;;;;;;9.13;4.07;;;;;;;12.00;nan;101439.34;5020702;28;20412;-53
2022/09/25 07:21:09;;;;;;;8.25;3.63;;;;;;;12.48;nan;101510.97;5012266;28;20477;-55
2022/09/25 07:23:35;;;;;;;8.82;3.45;;;;;;;12.35;nan;101465.56;5012021;28;20061;-54
2022/09/25 07:26:27;;;;;;;12.82;4.35;;;;;;;12.70;nan;101507.63;5019957;28;20072;-56
2022/09/25 07:29:05;;;;;;;7.65;3.55;;;;;;;12.82;nan;101504.59;5029495;28;20100;-48
2022/09/25 07:31:32;;;;;;;8.40;2.55;;;;;;;12.98;nan;101516.44;5015901;28;20072;-52
2022/09/25 07:34:01;;;;;;;5.47;2.00;;;;;;;13.19;nan;101509.63;5031498;28;20057;-51
2022/09/25 07:36:27;;;;;;;4.35;1.52;;;;;;;13.42;nan;101515.03;5019907;28;20032;-56
2022/09/25 07:38:53;;;;;;;7.03;2.00;;;;;;;13.42;nan;101471.88;5026029;28;20039;-53
2022/09/25 07:41:21;;;;;;;6.88;1.90;;;;;;;13.56;nan;101471.38;5030348;28;20376;-53
2022/09/25 07:43:50;;;;;;;5.25;1.63;;;;;;;13.93;nan;101515.00;5025399;28;20069;-55
2022/09/25 07:49:39;;;;;;;5.90;1.40;;;;;;;13.88;nan;101482.56;5011160;28;20052;-59
2022/09/25 07:52:05;;;;;;;5.60;1.38;;;;;;;14.23;nan;101523.66;5015307;28;20404;-56
2022/09/25 07:54:31;;;;;;;7.38;2.00;;;;;;;14.42;nan;101539.72;5010422;28;20050;-52
2022/09/25 07:56:56;;;;;;;5.53;1.20;;;;;;;14.54;nan;101528.69;5010314;28;20488;-53
2022/09/25 07:59:22;;;;;;;6.38;1.33;;;;;;;14.48;nan;101503.28;5011248;28;20485;-55
2022/09/25 08:01:47;;;;;;;7.70;1.08;;;;;;;14.97;nan;101525.25;5011622;28;20044;-57
2022/09/25 08:04:12;;;;;;;3.80;1.17;;;;;;;15.13;nan;101540.50;5021072;28;20033;-56
2022/09/25 08:06:38;;;;;;;4.68;1.30;;;;;;;15.37;nan;101543.94;5030028;28;20038;-54
2022/09/25 08:09:03;;;;;;;6.93;1.75;;;;;;;15.97;nan;101550.25;5030076;28;20029;-55
2022/09/25 08:11:30;;;;;;;5.32;1.23;;;;;;;16.30;nan;101523.09;5026487;28;20038;-54
2022/09/25 08:13:55;;;;;;;3.88;1.05;;;;;;;16.60;nan;101574.03;5011212;28;20465;-56
2022/09/25 08:16:22;;;;;;;3.90;1.00;;;;;;;16.33;nan;101514.13;5022776;28;20048;-54
2022/09/25 08:18:48;;;;;;;7.55;1.20;;;;;;;16.43;nan;101562.41;5033608;28;20488;-57
2022/09/25 08:21:16;;;;;;;3.08;0.90;;;;;;;16.38;nan;101567.03;5017181;28;20045;-61
2022/09/25 08:23:42;;;;;;;3.75;0.93;;;;;;;16.21;nan;101563.34;5018938;28;20048;-57
2022/09/25 08:26:08;;;;;;;6.20;1.48;;;;;;;15.97;nan;101561.75;5033824;28;20033;-58
2022/09/25 08:28:33;;;;;;;5.53;1.40;;;;;;;15.78;nan;101574.09;5034516;28;20037;-56
2022/09/25 08:31:00;;;;;;;4.60;1.20;;;;;;;15.23;nan;101506.50;5018368;28;20121;-60
2022/09/25 08:33:26;;;;;;;2.95;1.00;;;;;;;15.49;nan;101556.75;5029875;28;20112;-52
2022/09/25 08:35:55;;;;;;;7.15;1.17;;;;;;;15.22;nan;101504.78;5021569;28;20071;-58
2022/09/25 08:38:23;;;;;;;4.78;1.00;;;;;;;15.41;nan;101556.13;5023460;28;20121;-52
2022/09/25 08:40:58;;;;;;;5.15;1.33;;;;;;;15.63;nan;101572.94;5029438;28;20057;-55
2022/09/25 08:43:25;;;;;;;6.07;1.13;;;;;;;15.57;nan;101559.94;5032854;28;20469;-52
2022/09/25 08:49:01;;;;;;;2.28;0.93;;;;;;;15.85;nan;101543.69;5034398;28;20052;-58
2022/09/25 08:51:33;;;;;;;4.80;1.00;;;;;;;15.80;nan;101543.03;5018672;28;20037;-58
2022/09/25 08:53:58;;;;;;;3.55;0.90;;;;;;;15.96;nan;101565.34;5032870;28;20113;-61
2022/09/25 08:56:26;;;;;;;6.72;1.20;;;;;;;16.05;nan;101564.94;5028005;28;20108;-58
2022/09/25 08:59:02;;;;;;;5.10;1.17;;;;;;;15.99;nan;101567.88;5032690;28;20018;-56
2022/09/25 09:01:41;;;;;;;3.92;0.88;;;;;;;15.99;nan;101559.91;5032570;28;20021;-55
2022/09/25 09:04:14;;;;;;;2.10;0.90;;;;;;;15.97;nan;101510.44;5033754;28;20041;-56
2022/09/25 09:06:41;;;;;;;4.78;0.93;;;;;;;16.56;nan;101579.53;5032808;28;20021;-55
2022/09/25 09:09:29;;;;;;;4.07;0.93;;;;;;;16.71;nan;101578.84;5033378;28;20041;-59
2022/09/25 09:12:01;;;;;;;6.00;1.58;;;;;;;17.06;nan;101578.06;5021091;28;20029;-54
2022/09/25 09:14:29;;;;;;;3.33;0.90;;;;;;;17.63;nan;101534.44;5032201;28;20503;-53
2022/09/25 09:16:59;;;;;;;1.77;0.70;;;;;;;18.56;nan;101562.44;5037024;28;20025;-56
2022/09/25 09:19:25;;;;;;;3.10;1.00;;;;;;;18.93;nan;101622.63;5017345;28;20033;-56
2022/09/25 09:21:50;;;;;;;3.08;0.85;;;;;;;19.24;nan;101632.47;5027031;28;20033;-53
2022/09/25 09:24:22;;;;;;;1.90;0.80;;;;;;;18.96;nan;101582.44;5023760;28;20503;-59
2022/09/25 09:27:23;;;;;;;4.28;1.23;;;;;;;19.47;nan;101626.72;5028729;28;20173;-56
2022/09/25 09:30:18;;;;;;;3.63;0.95;;;;;;;19.26;nan;101631.47;5011544;28;20049;-57
2022/09/25 09:32:49;;;;;;;2.78;0.90;;;;;;;19.56;nan;101628.88;5013588;28;20522;-56
2022/09/25 09:35:24;;;;;;;;;;;;;;;20.37;nan;101638.38;5015213;28;20038;-59
2022/09/25 09:37:50;;;;;;;2.83;0.70;;;;;;;20.88;nan;101581.63;5024874;28;19989;-58
2022/09/25 09:40:34;;;;;;;2.67;1.00;;;;;;;22.67;nan;101601.78;5023825;28;20033;-59
2022/09/25 09:43:18;;;;;;;3.28;1.10;;;;;;;23.27;nan;101643.00;5017094;28;20034;-54
2022/09/25 09:45:57;;;;;;;3.80;1.33;;;;;;;24.20;nan;101654.94;5016616;28;20117;-56
2022/09/25 09:48:58;;;;;;;2.88;1.38;;;;;;;25.07;nan;101630.97;5013388;28;20022;-58
2022/09/25 09:51:38;;;;;;;3.33;1.00;;;;;;;23.95;nan;101637.06;5010683;28;20033;-58
2022/09/25 09:54:10;;;;;;;2.83;1.23;;;;;;;22.84;nan;101641.69;5021938;28;20577;-59
2022/09/25 09:56:37;;;;;;;3.40;1.00;;;;;;;21.41;nan;101638.94;5025297;28;20392;-59
2022/09/25 09:59:05;;;;;;;4.68;1.20;;;;;;;20.55;nan;101635.44;5016562;28;20069;-61
2022/09/25 10:01:36;;;;;;;4.93;1.38;;;;;;;19.18;nan;101588.31;5028969;28;20053;-60
2022/09/25 10:04:06;;;;;;;;;;;;;;;19.15;nan;101625.84;5020474;28;20037;-56
2022/09/25 10:06:35;;;;;;;2.83;1.10;;;;;;;18.90;nan;101615.66;5020096;28;20360;-59
2022/09/25 10:09:00;;;;;;;3.00;1.13;;;;;;;18.10;nan;101568.44;5026719;28;20025;-60
2022/09/25 10:11:27;;;;;;;4.53;1.20;;;;;;;17.78;nan;101584.25;5009907;28;20034;-57
2022/09/25 10:13:54;;;;;;;3.80;1.10;;;;;;;17.08;nan;101528.28;5010480;28;20383;-59
2022/09/25 10:16:23;;;;;;;7.38;1.50;;;;;;;16.62;nan;101537.59;5020936;28;20037;-58
2022/09/25 10:18:54;;;;;;;3.10;0.85;;;;;;;16.23;nan;101511.00;5015371;28;20035;-57
2022/09/25 10:21:26;;;;;;;2.78;0.93;;;;;;;16.33;nan;101569.91;5013290;28;20034;-61
2022/09/25 10:23:54;;;;;;;4.43;1.25;;;;;;;16.15;nan;101579.56;5030228;28;20064;-56
2022/09/25 10:26:32;;;;;;;2.08;0.80;;;;;;;15.95;nan;101573.38;5032221;28;20030;-58
2022/09/25 10:28:59;;;;;;;2.70;1.40;;;;;;;15.95;nan;101582.19;5016653;28;20099;-53
2022/09/25 10:31:28;;;;;;;3.97;0.70;;;;;;;15.81;nan;101547.44;5028721;28;20025;-58
2022/09/25 10:33:59;;;;;;;3.22;0.80;;;;;;;15.98;nan;101565.28;5018535;28;20032;-58
2022/09/25 10:36:34;;;;;;;3.00;0.70;;;;;;;15.86;nan;101568.44;5011294;28;20037;-54
2022/09/25 10:38:59;;;;;;;52.75;14.05;;;;;;;15.84;nan;101563.22;5010799;28;20064;-62
2022/09/25 10:41:25;;;;;;;23.90;6.75;;;;;;;15.37;nan;101485.59;5031668;28;20449;-59
2022/09/25 10:43:59;;;;;;;3.38;0.70;;;;;;;15.74;nan;101561.88;5026975;28;20045;-62
2022/09/25 10:52:04;;;;;;;2.47;0.73;;;;;;;15.48;nan;101479.84;5022360;28;19964;-63
2022/09/25 10:54:30;;;;;;;1.75;0.90;;;;;;;15.92;nan;101549.59;5022906;28;20087;-60
2022/09/25 10:56:55;;;;;;;2.30;0.60;;;;;;;15.92;nan;101557.56;5015283;28;20053;-61
2022/09/25 10:59:22;;;;;;;1.55;0.50;;;;;;;15.76;nan;101501.66;5027549;28;20037;-61
2022/09/25 11:01:49;;;;;;;1.30;0.70;;;;;;;16.17;nan;101551.13;5017138;28;20034;-59
2022/09/25 11:04:30;;;;;;;3.38;0.50;;;;;;;16.38;nan;101556.41;5029624;28;20049;-62
2022/09/25 11:06:59;;;;;;;3.50;0.70;;;;;;;16.47;nan;101554.19;5033920;28;20112;-62
2022/09/25 11:09:26;;;;;;;1.25;0.40;;;;;;;16.75;nan;101557.34;5029468;28;20028;-59
2022/09/25 11:12:03;;;;;;;0.80;0.50;;;;;;;17.00;nan;101558.84;5027011;28;20476;-62
2022/09/25 11:14:31;;;;;;;3.95;0.47;;;;;;;17.51;nan;101569.66;5000843;28;20046;-60
2022/09/25 11:16:58;;;;;;;4.03;0.93;;;;;;;17.98;nan;101559.28;5024891;28;20068;-62
2022/09/25 11:19:41;;;;;;;3.90;1.77;;;;;;;18.26;nan;101556.91;5014035;28;20034;-61
2022/09/25 11:22:16;;;;;;;3.95;0.90;;;;;;;19.02;nan;101572.31;5029332;28;20124;-62
2022/09/25 11:25:24;;;;;;;4.47;0.90;;;;;;;20.01;nan;101579.94;5028368;28;20136;-60
2022/09/25 11:27:54;;;;;;;3.13;0.80;;;;;;;21.27;nan;101575.59;5014737;28;20489;-60
2022/09/25 11:30:21;;;;;;;2.90;0.60;;;;;;;21.85;nan;101578.78;5018330;28;20033;-61
2022/09/25 11:33:12;;;;;;;0.88;0.60;;;;;;;21.43;nan;101554.84;5023656;28;20034;-58
2022/09/25 11:35:48;;;;;;;1.17;0.50;;;;;;;20.94;nan;101583.06;5028373;28;20030;-60
2022/09/25 11:41:34;;;;;;;2.83;0.70;;;;;;;23.07;nan;101532.63;5028757;28;20053;-63
2022/09/25 11:44:16;;;;;;;1.95;0.35;;;;;;;23.16;nan;101573.09;5024105;28;20408;-62
2022/09/25 11:46:46;;;;;;;1.65;0.50;;;;;;;23.25;nan;101568.88;5017929;28;20623;-64
2022/09/25 11:49:19;;;;;;;2.67;0.50;;;;;;;24.46;nan;101532.69;5028237;28;20045;-62
2022/09/25 11:51:50;;;;;;;1.80;0.88;;;;;;;26.08;nan;101578.47;5017112;28;20040;-62
2022/09/25 11:54:24;;;;;;;1.70;0.40;;;;;;;25.46;nan;101536.06;5025796;28;20042;-63
2022/09/25 11:57:12;;;;;;;0.75;0.30;;;;;;;25.79;nan;101570.16;5031338;28;20118;-61
2022/09/25 11:59:49;;;;;;;1.63;0.32;;;;;;;25.77;nan;101568.59;5012439;28;20033;-63
2022/09/25 12:02:43;;;;;;;1.02;0.30;;;;;;;26.13;nan;101560.03;5021189;28;20033;-63
2022/09/25 12:05:27;;;;;;;0.40;0.38;;;;;;;26.93;nan;101560.22;5018129;28;20465;-63
2022/09/25 12:07:56;;;;;;;1.75;0.43;;;;;;;27.14;nan;101561.00;5035222;28;20565;-64
2022/09/25 12:10:30;;;;;;;0.60;0.45;;;;;;;27.16;nan;101561.69;5029721;28;20413;-63
2022/09/25 12:13:08;;;;;;;1.02;0.35;;;;;;;26.37;nan;101567.91;5033551;28;20544;-64
2022/09/25 12:15:43;;;;;;;1.25;0.40;;;;;;;25.19;nan;101560.78;5032843;28;20116;-64
2022/09/25 12:18:42;;;;;;;1.48;0.30;;;;;;;25.16;nan;101549.38;5040522;28;20033;-60
2022/09/25 12:21:24;;;;;;;0.63;0.50;;;;;;;26.14;nan;101534.78;5033122;28;20524;-63
2022/09/25 12:24:22;;;;;;;1.10;0.50;;;;;;;26.69;nan;101539.78;5032966;28;20045;-63